Terminal Aerodrome Forecast
Issued by NWS

Home | Current Version | Previous Version | Text Only | Print | Product List | Glossary On
Versions: 1 2 3 4 5 6 7 8 9 10 11 12 13 14 15
000
FTUS42 TJSJ 202300 RRA
TAFKPK
TAF
TKPK 202341Z 2100/2124 08011KT P6SM FEW018
     FM211300 07015KT P6SM FEW022
     FM212300 08010KT P6SM SCT022=

USA.gov is the U.S. government's official web portal to all federal, state and local government web resources and services.